Time,TemperatureF,DewpointF,PressureIn,WindDirection,WindDirectionDegrees,WindSpeedMPH,WindSpeedGustMPH,Humidity,HourlyPrecipIn,Conditions,Clouds,dailyrainin,SoftwareType,DateUTC
2013-01-24 00:03:00,35.0,24.0,30.19,NW,322,21.0,-999.0,65,-99.99,,,-99.99,,2013-01-24 05:03:00,
2013-01-24 00:12:00,35.0,24.0,30.19,NW,322,21.0,-999.0,65,-99.99,,,-99.99,,2013-01-24 05:12:00,
2013-01-24 00:22:00,36.0,26.0,30.19,North,351,23.0,-999.0,66,-99.99,,,-99.99,,2013-01-24 05:22:00,
2013-01-24 00:33:00,36.0,26.0,30.18,NW,313,22.0,-999.0,67,-99.99,,,-99.99,,2013-01-24 05:33:00,
2013-01-24 00:43:00,36.0,26.0,30.18,NW,313,22.0,-999.0,67,-99.99,,,-99.99,,2013-01-24 05:43:00,
2013-01-24 00:53:00,36.0,26.0,30.18,West,276,21.0,-999.0,67,-99.99,,,-99.99,,2013-01-24 05:53:00,
2013-01-24 01:03:00,36.0,26.0,30.17,WNW,302,24.0,-999.0,66,-99.99,,,-99.99,,2013-01-24 06:03:00,
2013-01-24 01:12:00,36.0,26.0,30.17,WNW,302,24.0,-999.0,66,-99.99,,,-99.99,,2013-01-24 06:12:00,
2013-01-24 01:22:00,37.0,27.0,30.16,WNW,302,25.0,-999.0,67,-99.99,,,-99.99,,2013-01-24 06:22:00,
2013-01-24 01:32:00,37.0,27.0,30.16,WNW,284,26.0,-999.0,67,-99.99,,,-99.99,,2013-01-24 06:32:00,
2013-01-24 01:42:00,37.0,27.0,30.16,WNW,284,26.0,-999.0,67,-99.99,,,-99.99,,2013-01-24 06:42:00,
2013-01-24 01:52:00,37.0,27.0,30.16,WNW,284,26.0,-999.0,67,-99.99,,,-99.99,,2013-01-24 06:52:00,
2013-01-24 02:03:00,36.0,27.0,30.16,NW,308,23.0,-999.0,69,-99.99,,,-99.99,,2013-01-24 07:03:00,
2013-01-24 02:12:00,36.0,27.0,30.16,NW,308,23.0,-999.0,69,-99.99,,,-99.99,,2013-01-24 07:12:00,
2013-01-24 02:23:00,36.0,27.0,30.15,NNW,331,21.0,-999.0,70,-99.99,,,-99.99,,2013-01-24 07:23:00,
2013-01-24 02:33:00,35.0,26.0,30.15,West,277,21.0,-999.0,70,-99.99,,,-99.99,,2013-01-24 07:33:00,
2013-01-24 02:43:00,35.0,26.0,30.15,West,277,21.0,-999.0,70,-99.99,,,-99.99,,2013-01-24 07:43:00,
2013-01-24 02:52:00,35.0,27.0,30.15,NNW,341,25.0,-999.0,71,-99.99,,,-99.99,,2013-01-24 07:52:00,
2013-01-24 03:03:00,35.0,27.0,30.14,WNW,300,22.0,-999.0,71,-99.99,,,-99.99,,2013-01-24 08:03:00,
2013-01-24 03:13:00,35.0,27.0,30.14,WNW,300,22.0,-999.0,71,-99.99,,,-99.99,,2013-01-24 08:13:00,
2013-01-24 03:23:00,34.0,26.0,30.16,WNW,302,24.0,-999.0,72,-99.99,,,-99.99,,2013-01-24 08:23:00,
2013-01-24 03:33:00,33.0,26.0,30.16,WNW,299,20.0,-999.0,74,-99.99,,,-99.99,,2013-01-24 08:33:00,
2013-01-24 03:43:00,33.0,26.0,30.16,WNW,299,20.0,-999.0,74,-99.99,,,-99.99,,2013-01-24 08:43:00,
2013-01-24 03:52:00,32.0,25.0,30.15,NW,319,19.0,-999.0,75,-99.99,,,-99.99,,2013-01-24 08:52:00,
2013-01-24 04:03:00,32.0,25.0,30.15,West,281,20.0,-999.0,76,-99.99,,,-99.99,,2013-01-24 09:03:00,
2013-01-24 04:13:00,32.0,25.0,30.15,West,281,20.0,-999.0,76,-99.99,,,-99.99,,2013-01-24 09:13:00,
2013-01-24 04:23:00,31.0,24.0,30.15,NW,319,20.0,-999.0,76,-99.99,,,-99.99,,2013-01-24 09:23:00,
2013-01-24 04:33:00,31.0,24.0,30.14,WNW,298,20.0,-999.0,75,-99.99,,,-99.99,,2013-01-24 09:33:00,
2013-01-24 04:43:00,31.0,24.0,30.14,WNW,298,20.0,-999.0,75,-99.99,,,-99.99,,2013-01-24 09:43:00,
2013-01-24 04:52:00,31.0,23.0,30.14,NW,306,20.0,-999.0,73,-99.99,,,-99.99,,2013-01-24 09:52:00,
2013-01-24 05:03:00,30.0,22.0,30.14,NW,318,21.0,-999.0,71,-99.99,,,-99.99,,2013-01-24 10:03:00,
2013-01-24 05:12:00,30.0,22.0,30.14,NW,318,21.0,-999.0,71,-99.99,,,-99.99,,2013-01-24 10:12:00,
2013-01-24 05:23:00,30.0,21.0,30.15,NW,324,20.0,-999.0,70,-99.99,,,-99.99,,2013-01-24 10:23:00,
2013-01-24 05:33:00,29.0,20.0,30.15,NNW,347,20.0,-999.0,70,-99.99,,,-99.99,,2013-01-24 10:33:00,
2013-01-24 05:43:00,29.0,20.0,30.15,NNW,347,20.0,-999.0,70,-99.99,,,-99.99,,2013-01-24 10:43:00,
2013-01-24 05:52:00,28.0,20.0,30.15,NNW,336,19.0,-999.0,70,-99.99,,,-99.99,,2013-01-24 10:52:00,
2013-01-24 06:03:00,27.0,19.0,30.16,NNW,339,17.0,-999.0,70,-99.99,,,-99.99,,2013-01-24 11:03:00,
2013-01-24 06:12:00,27.0,19.0,30.16,NNW,339,17.0,-999.0,70,-99.99,,,-99.99,,2013-01-24 11:12:00,
2013-01-24 06:23:00,27.0,18.0,30.17,NNW,340,19.0,-999.0,67,-99.99,,,-99.99,,2013-01-24 11:23:00,
2013-01-24 06:33:00,26.0,16.0,30.19,NW,313,18.0,-999.0,64,-99.99,,,-99.99,,2013-01-24 11:33:00,
2013-01-24 06:43:00,26.0,16.0,30.19,NW,313,18.0,-999.0,64,-99.99,,,-99.99,,2013-01-24 11:43:00,
2013-01-24 06:53:00,25.0,13.0,30.19,NNE,29,17.0,-999.0,61,-99.99,,,-99.99,,2013-01-24 11:53:00,
2013-01-24 07:03:00,25.0,14.0,30.21,NNE,14,17.0,-999.0,62,-99.99,,,-99.99,,2013-01-24 12:03:00,
2013-01-24 07:12:00,25.0,14.0,30.21,NNE,14,17.0,-999.0,62,-99.99,,,-99.99,,2013-01-24 12:12:00,
2013-01-24 07:23:00,24.0,14.0,30.21,NE,39,18.0,-999.0,64,-99.99,,,-99.99,,2013-01-24 12:23:00,
2013-01-24 07:33:00,24.0,14.0,30.23,NNW,337,19.0,-999.0,65,-99.99,,,-99.99,,2013-01-24 12:33:00,
2013-01-24 07:43:00,24.0,14.0,30.23,NNW,337,19.0,-999.0,65,-99.99,,,-99.99,,2013-01-24 12:43:00,
2013-01-24 07:53:00,23.0,13.0,30.23,NW,311,17.0,-999.0,66,-99.99,,,-99.99,,2013-01-24 12:53:00,
2013-01-24 08:03:00,23.0,14.0,30.24,North,5,17.0,-999.0,68,-99.99,,,-99.99,,2013-01-24 13:03:00,
2013-01-24 08:13:00,23.0,14.0,30.24,North,5,17.0,-999.0,68,-99.99,,,-99.99,,2013-01-24 13:13:00,
2013-01-24 08:23:00,23.0,14.0,30.24,North,5,15.0,-999.0,69,-99.99,,,-99.99,,2013-01-24 13:23:00,
2013-01-24 08:33:00,23.0,14.0,30.26,NE,38,15.0,-999.0,69,-99.99,,,-99.99,,2013-01-24 13:33:00,
2013-01-24 08:43:00,23.0,14.0,30.26,NE,38,15.0,-999.0,69,-99.99,,,-99.99,,2013-01-24 13:43:00,
2013-01-24 08:53:00,22.0,13.0,30.27,North,5,14.0,-999.0,69,-99.99,,,-99.99,,2013-01-24 13:53:00,
2013-01-24 09:03:00,22.0,13.0,30.28,NNW,327,15.0,-999.0,67,-99.99,,,-99.99,,2013-01-24 14:03:00,
2013-01-24 09:12:00,22.0,13.0,30.28,NNW,327,15.0,-999.0,67,-99.99,,,-99.99,,2013-01-24 14:12:00,
2013-01-24 09:23:00,21.0,12.0,30.30,North,360,13.0,-999.0,67,-99.99,,,-99.99,,2013-01-24 14:23:00,
2013-01-24 09:33:00,21.0,11.0,30.32,North,5,15.0,-999.0,66,-99.99,,,-99.99,,2013-01-24 14:33:00,
2013-01-24 09:43:00,21.0,11.0,30.32,North,5,15.0,-999.0,66,-99.99,,,-99.99,,2013-01-24 14:43:00,
2013-01-24 09:53:00,20.0,11.0,30.35,WNW,302,17.0,-999.0,66,-99.99,,,-99.99,,2013-01-24 14:53:00,
2013-01-24 10:04:00,19.0,9.0,30.37,NW,319,17.0,-999.0,65,-99.99,,,-99.99,,2013-01-24 15:04:00,
2013-01-24 10:13:00,19.0,9.0,30.37,NW,319,17.0,-999.0,65,-99.99,,,-99.99,,2013-01-24 15:13:00,
2013-01-24 10:23:00,19.0,8.0,30.37,NNE,31,17.0,-999.0,62,-99.99,,,-99.99,,2013-01-24 15:23:00,
2013-01-24 10:33:00,19.0,8.0,30.37,NNE,31,17.0,-999.0,62,-99.99,,,-99.99,,2013-01-24 15:33:00,
2013-01-24 10:43:00,19.0,7.0,30.37,WNW,300,19.0,-999.0,59,-99.99,,,-99.99,,2013-01-24 15:43:00,
2013-01-24 10:53:00,19.0,7.0,30.37,WNW,300,19.0,-999.0,59,-99.99,,,-99.99,,2013-01-24 15:53:00,
2013-01-24 11:04:00,18.0,5.0,30.42,West,269,14.0,-999.0,57,-99.99,,,-99.99,,2013-01-24 16:04:00,
2013-01-24 11:12:00,18.0,5.0,30.42,West,269,14.0,-999.0,57,-99.99,,,-99.99,,2013-01-24 16:12:00,
2013-01-24 11:23:00,18.0,5.0,30.43,NNW,340,11.0,-999.0,56,-99.99,,,-99.99,,2013-01-24 16:23:00,
2013-01-24 11:33:00,18.0,5.0,30.45,WNW,287,12.0,-999.0,55,-99.99,,,-99.99,,2013-01-24 16:33:00,
2013-01-24 11:43:00,18.0,5.0,30.45,WNW,287,12.0,-999.0,55,-99.99,,,-99.99,,2013-01-24 16:43:00,
2013-01-24 12:03:00,19.0,7.0,30.46,WNW,294,8.0,-999.0,58,-99.99,,,-99.99,,2013-01-24 17:03:00,
2013-01-24 12:12:00,19.0,7.0,30.46,WNW,294,8.0,-999.0,58,-99.99,,,-99.99,,2013-01-24 17:12:00,
2013-01-24 12:22:00,19.0,7.0,30.46,WNW,294,8.0,-999.0,58,-99.99,,,-99.99,,2013-01-24 17:22:00,
2013-01-24 12:32:00,18.0,5.0,30.47,NW,319,9.0,-999.0,57,-99.99,,,-99.99,,2013-01-24 17:32:00,
2013-01-24 12:42:00,18.0,5.0,30.47,NW,319,9.0,-999.0,57,-99.99,,,-99.99,,2013-01-24 17:42:00,
2013-01-24 12:52:00,19.0,6.0,30.47,WNW,297,8.0,-999.0,57,-99.99,,,-99.99,,2013-01-24 17:52:00,
2013-01-24 13:03:00,19.0,6.0,30.48,NNE,13,9.0,-999.0,55,-99.99,,,-99.99,,2013-01-24 18:03:00,
2013-01-24 13:12:00,19.0,5.0,30.48,NNE,22,11.0,-999.0,53,-99.99,,,-99.99,,2013-01-24 18:12:00,
2013-01-24 13:23:00,19.0,5.0,30.48,NNE,22,11.0,-999.0,53,-99.99,,,-99.99,,2013-01-24 18:23:00,
2013-01-24 13:33:00,20.0,5.0,30.48,NW,318,12.0,-999.0,51,-99.99,,,-99.99,,2013-01-24 18:33:00,
2013-01-24 13:42:00,20.0,5.0,30.48,NW,318,12.0,-999.0,51,-99.99,,,-99.99,,2013-01-24 18:42:00,
2013-01-24 13:53:00,20.0,4.0,30.50,WNW,284,10.0,-999.0,50,-99.99,,,-99.99,,2013-01-24 18:53:00,
2013-01-24 14:02:00,21.0,5.0,30.49,ENE,66,8.0,-999.0,49,-99.99,,,-99.99,,2013-01-24 19:02:00,
2013-01-24 14:12:00,21.0,5.0,30.49,ENE,66,8.0,-999.0,49,-99.99,,,-99.99,,2013-01-24 19:12:00,
2013-01-24 14:22:00,20.0,4.0,30.49,West,273,11.0,-999.0,49,-99.99,,,-99.99,,2013-01-24 19:22:00,
2013-01-24 14:33:00,21.0,5.0,30.49,WNW,288,5.0,-999.0,49,-99.99,,,-99.99,,2013-01-24 19:33:00,
2013-01-24 14:42:00,21.0,5.0,30.49,WNW,288,5.0,-999.0,49,-99.99,,,-99.99,,2013-01-24 19:42:00,
2013-01-24 14:52:00,21.0,5.0,30.49,WNW,288,5.0,-999.0,49,-99.99,,,-99.99,,2013-01-24 19:52:00,
2013-01-24 15:02:00,21.0,4.0,30.49,North,5,11.0,-999.0,46,-99.99,,,-99.99,,2013-01-24 20:02:00,
2013-01-24 15:12:00,21.0,4.0,30.49,North,5,11.0,-999.0,46,-99.99,,,-99.99,,2013-01-24 20:12:00,
2013-01-24 15:22:00,21.0,4.0,30.50,North,355,11.0,-999.0,47,-99.99,,,-99.99,,2013-01-24 20:22:00,
2013-01-24 15:33:00,21.0,4.0,30.51,NNW,332,10.0,-999.0,47,-99.99,,,-99.99,,2013-01-24 20:33:00,
2013-01-24 15:42:00,21.0,4.0,30.51,NNW,332,10.0,-999.0,47,-99.99,,,-99.99,,2013-01-24 20:42:00,
2013-01-24 15:52:00,21.0,4.0,30.51,NNW,331,6.0,-999.0,46,-99.99,,,-99.99,,2013-01-24 20:52:00,
2013-01-24 16:03:00,22.0,5.0,30.51,West,273,5.0,-999.0,47,-99.99,,,-99.99,,2013-01-24 21:03:00,
2013-01-24 16:13:00,22.0,5.0,30.51,West,273,5.0,-999.0,47,-99.99,,,-99.99,,2013-01-24 21:13:00,
2013-01-24 16:22:00,22.0,5.0,30.53,SE,128,2.0,-999.0,47,-99.99,,,-99.99,,2013-01-24 21:22:00,
2013-01-24 16:33:00,22.0,3.0,30.54,NW,319,4.0,-999.0,44,-99.99,,,-99.99,,2013-01-24 21:33:00,
2013-01-24 16:43:00,22.0,3.0,30.54,NW,319,4.0,-999.0,44,-99.99,,,-99.99,,2013-01-24 21:43:00,
2013-01-24 16:52:00,22.0,4.0,30.55,NE,40,4.0,-999.0,46,-99.99,,,-99.99,,2013-01-24 21:52:00,
2013-01-24 17:03:00,22.0,4.0,30.55,NW,317,3.0,-999.0,45,-99.99,,,-99.99,,2013-01-24 22:03:00,
2013-01-24 17:12:00,22.0,4.0,30.55,NW,317,3.0,-999.0,45,-99.99,,,-99.99,,2013-01-24 22:12:00,
2013-01-24 17:22:00,20.0,4.0,30.55,North,355,3.0,-999.0,49,-99.99,,,-99.99,,2013-01-24 22:22:00,
2013-01-24 17:33:00,20.0,3.0,30.55,NNE,13,1.0,-999.0,46,-99.99,,,-99.99,,2013-01-24 22:33:00,
2013-01-24 17:42:00,20.0,3.0,30.55,NNE,13,1.0,-999.0,46,-99.99,,,-99.99,,2013-01-24 22:42:00,
2013-01-24 17:52:00,19.0,3.0,30.56,North,349,3.0,-999.0,49,-99.99,,,-99.99,,2013-01-24 22:52:00,
2013-01-24 18:03:00,18.0,3.0,30.57,North,360,2.0,-999.0,50,-99.99,,,-99.99,,2013-01-24 23:03:00,
2013-01-24 18:12:00,18.0,3.0,30.57,North,360,2.0,-999.0,50,-99.99,,,-99.99,,2013-01-24 23:12:00,
2013-01-24 18:22:00,18.0,3.0,30.57,NNE,14,1.0,-999.0,51,-99.99,,,-99.99,,2013-01-24 23:22:00,
2013-01-24 18:32:00,17.0,3.0,30.58,NE,38,1.0,-999.0,53,-99.99,,,-99.99,,2013-01-24 23:32:00,
2013-01-24 18:42:00,17.0,3.0,30.58,NE,38,1.0,-999.0,53,-99.99,,,-99.99,,2013-01-24 23:42:00,
2013-01-24 18:52:00,17.0,3.0,30.58,NE,38,0.0,-999.0,53,-99.99,,,-99.99,,2013-01-24 23:52:00,
2013-01-24 19:02:00,17.0,3.0,30.58,NE,38,0.0,-999.0,54,-99.99,,,-99.99,,2013-01-25 00:02:00,
2013-01-24 19:12:00,17.0,3.0,30.58,NE,38,0.0,-999.0,54,-99.99,,,-99.99,,2013-01-25 00:12:00,
2013-01-24 19:22:00,16.0,3.0,30.60,North,9,1.0,-999.0,55,-99.99,,,-99.99,,2013-01-25 00:22:00,
2013-01-24 19:32:00,16.0,3.0,30.60,NE,42,1.0,-999.0,55,-99.99,,,-99.99,,2013-01-25 00:32:00,
2013-01-24 19:42:00,16.0,3.0,30.60,NE,42,1.0,-999.0,55,-99.99,,,-99.99,,2013-01-25 00:42:00,
2013-01-24 19:52:00,16.0,3.0,30.60,NE,42,0.0,-999.0,56,-99.99,,,-99.99,,2013-01-25 00:52:00,
2013-01-24 20:02:00,16.0,4.0,30.61,NNE,30,1.0,-999.0,58,-99.99,,,-99.99,,2013-01-25 01:02:00,
2013-01-24 20:12:00,16.0,4.0,30.61,NNE,30,1.0,-999.0,58,-99.99,,,-99.99,,2013-01-25 01:12:00,
2013-01-24 20:22:00,15.0,3.0,30.61,NNE,30,0.0,-999.0,57,-99.99,,,-99.99,,2013-01-25 01:22:00,
2013-01-24 20:32:00,15.0,3.0,30.62,NNE,30,0.0,-999.0,58,-99.99,,,-99.99,,2013-01-25 01:32:00,
2013-01-24 20:42:00,15.0,3.0,30.62,NNE,30,0.0,-999.0,58,-99.99,,,-99.99,,2013-01-25 01:42:00,
2013-01-24 20:52:00,15.0,4.0,30.62,NNE,30,0.0,-999.0,60,-99.99,,,-99.99,,2013-01-25 01:52:00,
2013-01-24 21:03:00,14.0,3.0,30.61,NNE,30,0.0,-999.0,60,-99.99,,,-99.99,,2013-01-25 02:03:00,
2013-01-24 21:12:00,14.0,3.0,30.61,NNE,30,0.0,-999.0,60,-99.99,,,-99.99,,2013-01-25 02:12:00,
2013-01-24 21:22:00,13.0,2.0,30.62,NNE,30,0.0,-999.0,62,-99.99,,,-99.99,,2013-01-25 02:22:00,
2013-01-24 21:33:00,13.0,4.0,30.61,NNE,30,0.0,-999.0,66,-99.99,,,-99.99,,2013-01-25 02:33:00,
2013-01-24 21:42:00,13.0,4.0,30.61,NNE,30,0.0,-999.0,66,-99.99,,,-99.99,,2013-01-25 02:42:00,
2013-01-24 21:52:00,12.0,3.0,30.61,NNE,30,1.0,-999.0,67,-99.99,,,-99.99,,2013-01-25 02:52:00,
2013-01-24 22:02:00,12.0,4.0,30.60,NNE,30,1.0,-999.0,68,-99.99,,,-99.99,,2013-01-25 03:02:00,
2013-01-24 22:12:00,12.0,4.0,30.61,NNE,30,0.0,-999.0,68,-99.99,,,-99.99,,2013-01-25 03:12:00,
2013-01-24 22:22:00,12.0,4.0,30.61,NNE,30,0.0,-999.0,68,-99.99,,,-99.99,,2013-01-25 03:22:00,
2013-01-24 22:33:00,11.0,3.0,30.61,ESE,104,1.0,-999.0,71,-99.99,,,-99.99,,2013-01-25 03:33:00,
2013-01-24 22:42:00,11.0,3.0,30.61,ESE,104,1.0,-999.0,71,-99.99,,,-99.99,,2013-01-25 03:42:00,
2013-01-24 22:52:00,11.0,4.0,30.61,ESE,104,0.0,-999.0,74,-99.99,,,-99.99,,2013-01-25 03:52:00,
2013-01-24 23:02:00,11.0,4.0,30.61,ESE,104,0.0,-999.0,74,-99.99,,,-99.99,,2013-01-25 04:02:00,
2013-01-24 23:12:00,11.0,4.0,30.61,ESE,104,0.0,-999.0,74,-99.99,,,-99.99,,2013-01-25 04:12:00,
2013-01-24 23:22:00,12.0,5.0,30.60,ESE,104,0.0,-999.0,74,-99.99,,,-99.99,,2013-01-25 04:22:00,
2013-01-24 23:32:00,12.0,5.0,30.60,ESE,105,1.0,-999.0,74,-99.99,,,-99.99,,2013-01-25 04:32:00,
2013-01-24 23:42:00,12.0,5.0,30.60,ESE,105,1.0,-999.0,74,-99.99,,,-99.99,,2013-01-25 04:42:00,
2013-01-24 23:51:00,12.0,6.0,30.60,ESE,105,0.0,-999.0,76,-99.99,,,-99.99,,2013-01-25 04:51:00,